createdAt,value
2018-11-01T00:02:28.491Z,82.02
2018-11-01T00:04:58.643Z,81.00
2018-11-01T00:07:28.319Z,77.67
2018-11-01T00:09:58.094Z,78.78
2018-11-01T00:12:28.104Z,74.55
2018-11-01T00:14:57.885Z,73.97
2018-11-01T00:17:27.583Z,74.72
2018-11-01T00:19:57.334Z,72.80
2018-11-01T00:22:27.223Z,70.10
2018-11-01T00:24:57.011Z,71.57
2018-11-01T00:27:26.723Z,70.62
2018-11-01T00:29:56.434Z,68.80
2018-11-01T00:32:26.485Z,68.95
2018-11-01T00:34:56.483Z,68.67
2018-11-01T00:37:26.311Z,67.42
2018-11-01T00:39:56.184Z,68.60
2018-11-01T00:42:25.935Z,66.57
2018-11-01T00:44:55.727Z,64.67
2018-11-01T00:47:26.068Z,63.92
2018-11-01T00:49:55.938Z,62.73
2018-11-01T00:52:25.688Z,61.88
2018-11-01T00:54:55.674Z,61.95
2018-11-01T00:57:25.543Z,59.93
2018-11-01T00:59:55.355Z,60.40
2018-11-01T01:02:25.059Z,59.03
2018-11-01T01:04:54.569Z,59.13
2018-11-01T01:07:24.358Z,58.33
2018-11-01T01:09:55.671Z,56.73
2018-11-01T01:12:25.411Z,57.90
2018-11-01T01:14:55.611Z,54.67
2018-11-01T01:17:25.430Z,55.70
2018-11-01T01:20:01.010Z,56.05
2018-11-01T01:22:34.123Z,54.58
2018-11-01T01:25:05.978Z,53.33
2018-11-01T01:27:35.831Z,51.35
2018-11-01T01:30:14.633Z,53.20
2018-11-01T01:32:44.982Z,48.63
2018-11-01T01:35:15.122Z,48.85
2018-11-01T01:37:45.518Z,48.75
2018-11-01T01:40:15.650Z,48.73
2018-11-01T01:42:52.526Z,45.40
2018-11-01T01:45:22.607Z,46.45
2018-11-01T01:47:52.430Z,44.35
2018-11-01T01:50:22.280Z,45.50
2018-11-01T01:52:52.062Z,44.27
2018-11-01T01:55:21.827Z,43.15
2018-11-01T01:57:51.675Z,42.85
2018-11-01T02:00:21.799Z,40.55
2018-11-01T02:02:52.615Z,42.67
2018-11-01T02:05:22.439Z,40.10
2018-11-01T02:07:52.107Z,41.50
2018-11-01T02:10:22.063Z,39.90
2018-11-01T02:12:51.804Z,38.78
2018-11-01T02:15:22.025Z,40.03
2018-11-01T02:17:51.689Z,39.58
2018-11-01T02:20:21.915Z,38.08
2018-11-01T02:22:51.615Z,36.23
2018-11-01T02:25:21.442Z,36.55
2018-11-01T02:27:56.201Z,35.38
2018-11-01T02:30:26.078Z,35.00
2018-11-01T02:32:56.024Z,35.20
2018-11-01T02:35:26.063Z,35.30
2018-11-01T02:37:55.887Z,33.25
2018-11-01T02:40:25.732Z,34.43
2018-11-01T02:42:55.450Z,33.28
2018-11-01T02:45:25.063Z,32.83
2018-11-01T02:47:54.866Z,32.80
2018-11-01T02:50:24.649Z,32.35
2018-11-01T02:52:54.672Z,31.42
2018-11-01T02:55:24.749Z,31.70
2018-11-01T02:57:54.555Z,31.30
2018-11-01T03:00:24.389Z,29.95
2018-11-01T03:02:54.748Z,29.95
2018-11-01T03:05:24.875Z,30.05
2018-11-01T03:07:54.618Z,29.23
2018-11-01T03:10:24.419Z,29.20
2018-11-01T03:12:54.731Z,27.55
2018-11-01T03:15:24.483Z,28.42
2018-11-01T03:17:54.168Z,27.35
2018-11-01T03:20:24.291Z,27.05
2018-11-01T03:22:54.092Z,26.80
2018-11-01T03:25:23.943Z,25.62
2018-11-01T03:27:54.053Z,26.07
2018-11-01T03:30:23.871Z,25.52
2018-11-01T03:32:53.890Z,26.25
2018-11-01T03:35:23.695Z,24.45
2018-11-01T03:37:53.682Z,25.08
2018-11-01T03:40:23.521Z,24.95
2018-11-01T03:42:53.472Z,25.72
2018-11-01T03:45:23.381Z,24.02
2018-11-01T03:47:53.197Z,23.67
2018-11-01T03:50:22.968Z,24.85
2018-11-01T03:52:52.748Z,23.42
2018-11-01T03:55:22.907Z,23.12
2018-11-01T03:57:52.674Z,23.07
2018-11-01T04:00:22.563Z,22.13
2018-11-01T04:02:52.428Z,21.85
2018-11-01T04:05:22.196Z,20.17
2018-11-01T04:07:51.954Z,21.48
2018-11-01T04:10:21.738Z,20.85
2018-11-01T04:12:51.463Z,20.82
2018-11-01T04:15:21.328Z,21.55
2018-11-01T04:17:51.031Z,20.50
2018-11-01T04:20:20.958Z,21.20
2018-11-01T04:22:50.989Z,21.68
2018-11-01T04:25:20.786Z,20.30
2018-11-01T04:27:50.623Z,19.00
2018-11-01T04:30:20.403Z,19.40
2018-11-01T04:32:50.481Z,18.80
2018-11-01T04:35:20.375Z,18.62
2018-11-01T04:37:50.386Z,20.02
2018-11-01T04:40:20.777Z,19.82
2018-11-01T04:42:50.914Z,17.80
2018-11-01T04:45:20.741Z,18.10
2018-11-01T04:47:50.575Z,17.75
2018-11-01T04:50:20.502Z,18.40
2018-11-01T04:52:50.338Z,18.35
2018-11-01T04:55:20.135Z,17.45
2018-11-01T04:57:49.850Z,17.90
2018-11-01T05:00:19.687Z,16.97
2018-11-01T05:02:49.410Z,15.58
2018-11-01T05:05:19.143Z,16.52
2018-11-01T05:07:48.929Z,15.83
2018-11-01T05:10:18.637Z,15.85
2018-11-01T05:12:48.308Z,14.95
2018-11-01T05:15:18.234Z,15.28
2018-11-01T05:17:47.829Z,15.98
2018-11-01T05:20:17.584Z,14.78
2018-11-01T05:22:47.483Z,13.25
2018-11-01T05:25:17.421Z,12.80
2018-11-01T05:27:47.206Z,13.00
2018-11-01T05:30:16.958Z,13.65
2018-11-01T05:32:46.758Z,13.20
2018-11-01T05:35:16.741Z,13.62
2018-11-01T05:37:46.287Z,12.70
2018-11-01T05:40:16.138Z,16.17
2018-11-01T05:42:46.023Z,14.18
2018-11-01T05:45:15.878Z,13.65
2018-11-01T05:47:45.590Z,12.73
2018-11-01T05:50:15.322Z,13.08
2018-11-01T05:52:45.019Z,13.13
2018-11-01T05:55:14.775Z,11.78
2018-11-01T05:57:44.670Z,14.65
2018-11-01T06:00:14.844Z,13.08
2018-11-01T06:02:46.783Z,12.47
2018-11-01T06:05:16.514Z,12.65
2018-11-01T06:07:56.152Z,12.13
2018-11-01T06:10:26.342Z,12.43
2018-11-01T06:12:56.702Z,12.75
2018-11-01T06:18:23.753Z,14.05
2018-11-01T06:20:53.524Z,12.60
2018-11-01T06:23:23.436Z,11.95
2018-11-01T06:25:53.361Z,14.43
2018-11-01T06:28:23.122Z,13.13
2018-11-01T06:30:52.804Z,12.45
2018-11-01T06:33:22.479Z,14.03
2018-11-01T06:35:53.107Z,12.35
2018-11-01T06:38:22.993Z,11.08
2018-11-01T06:40:52.666Z,11.48
2018-11-01T06:43:22.367Z,11.95
2018-11-01T06:45:51.875Z,11.93
2018-11-01T06:48:21.377Z,10.72
2018-11-01T06:50:51.232Z,14.13
2018-11-01T06:53:20.991Z,18.60
2018-11-01T06:55:50.771Z,21.85
2018-11-01T06:58:20.617Z,29.60
2018-11-01T07:00:50.391Z,17.52
2018-11-01T07:03:20.174Z,17.95
2018-11-01T07:05:49.969Z,17.42
2018-11-01T07:08:19.768Z,16.25
2018-11-01T07:10:49.836Z,19.75
2018-11-01T07:13:19.729Z,17.45
2018-11-01T07:15:49.800Z,16.12
2018-11-01T07:18:20.025Z,31.48
2018-11-01T07:20:49.957Z,56.42
2018-11-01T07:23:19.926Z,51.83
2018-11-01T07:25:49.898Z,46.75
2018-11-01T07:28:19.750Z,49.30
2018-11-01T07:30:49.479Z,44.95
2018-11-01T07:33:19.235Z,45.90
2018-11-01T07:35:49.029Z,45.98
2018-11-01T07:38:18.817Z,46.70
2018-11-01T07:40:48.855Z,52.05
2018-11-01T07:43:18.903Z,46.70
2018-11-01T07:45:48.595Z,59.90
2018-11-01T07:48:18.222Z,52.93
2018-11-01T07:50:47.915Z,68.37
2018-11-01T07:53:17.675Z,75.35
2018-11-01T07:55:47.475Z,35.70
2018-11-01T07:58:17.303Z,27.32
2018-11-01T08:00:46.786Z,26.07
2018-11-01T08:03:16.310Z,32.45
2018-11-01T08:05:46.225Z,36.03
2018-11-01T08:08:16.020Z,36.17
2018-11-01T08:10:45.732Z,35.15
2018-11-01T08:13:15.476Z,34.65
2018-11-01T08:15:45.361Z,35.10
2018-11-01T08:18:15.198Z,34.63
2018-11-01T08:20:44.919Z,33.73
2018-11-01T08:23:14.739Z,34.13
2018-11-01T08:25:44.490Z,33.55
2018-11-01T08:28:14.287Z,32.35
2018-11-01T08:30:44.040Z,33.73
2018-11-01T08:33:13.887Z,33.28
2018-11-01T08:35:43.699Z,33.45
2018-11-01T08:38:13.506Z,34.70
2018-11-01T08:40:43.275Z,32.80
2018-11-01T08:43:13.163Z,32.53
2018-11-01T08:45:43.002Z,31.55
2018-11-01T08:48:13.119Z,32.45
2018-11-01T08:50:42.858Z,31.77
2018-11-01T08:53:12.713Z,31.68
2018-11-01T08:55:43.104Z,31.50
2018-11-01T08:58:12.907Z,32.35
2018-11-01T09:00:42.582Z,32.65
2018-11-01T09:03:12.327Z,31.05
2018-11-01T09:05:42.094Z,31.12
2018-11-01T09:08:12.000Z,31.20
2018-11-01T09:10:41.655Z,31.65
2018-11-01T09:13:11.443Z,30.60
2018-11-01T09:15:41.208Z,30.50
2018-11-01T09:18:10.947Z,29.27
2018-11-01T09:20:40.729Z,31.17
2018-11-01T09:23:10.642Z,29.95
2018-11-01T09:25:40.449Z,29.50
2018-11-01T09:28:10.435Z,29.55
2018-11-01T09:30:40.380Z,29.30
2018-11-01T09:33:10.047Z,28.32
2018-11-01T09:35:39.855Z,27.85
2018-11-01T09:38:09.500Z,28.52
2018-11-01T09:40:39.235Z,28.77
2018-11-01T09:43:09.460Z,27.82
2018-11-01T09:45:39.203Z,28.15
2018-11-01T09:48:08.879Z,27.27
2018-11-01T09:50:38.623Z,27.42
2018-11-01T09:53:08.507Z,26.77
2018-11-01T09:55:38.715Z,26.70
2018-11-01T09:58:08.394Z,27.25
2018-11-01T10:00:38.202Z,26.75
2018-11-01T10:03:08.002Z,25.43
2018-11-01T10:05:37.923Z,26.57
2018-11-01T10:08:07.662Z,26.07
2018-11-01T10:10:37.598Z,25.37
2018-11-01T10:13:07.303Z,25.60
2018-11-01T10:15:37.678Z,25.55
2018-11-01T10:18:07.701Z,25.75
2018-11-01T10:20:37.130Z,25.75
2018-11-01T10:23:07.069Z,25.25
2018-11-01T10:25:36.643Z,24.67
2018-11-01T10:28:06.685Z,25.05
2018-11-01T10:30:36.291Z,24.20
2018-11-01T10:33:06.253Z,24.18
2018-11-01T10:35:36.061Z,23.92
2018-11-01T10:38:05.812Z,24.35
2018-11-01T10:40:35.564Z,23.95
2018-11-01T10:43:05.218Z,23.65
2018-11-01T10:45:34.955Z,24.20
2018-11-01T10:48:04.768Z,24.32
2018-11-01T10:50:34.512Z,22.75
2018-11-01T10:53:04.288Z,22.82
2018-11-01T10:55:34.061Z,23.83
2018-11-01T10:58:04.112Z,23.12
2018-11-01T11:00:39.404Z,22.42
2018-11-01T11:03:09.016Z,21.42
2018-11-01T11:05:39.004Z,22.30
2018-11-01T11:08:09.162Z,22.10
2018-11-01T11:10:38.894Z,22.37
2018-11-01T11:13:08.675Z,21.57
2018-11-01T11:15:38.310Z,21.87
2018-11-01T11:18:08.501Z,22.05
2018-11-01T11:20:38.861Z,19.52
2018-11-01T11:23:08.394Z,21.42
2018-11-01T11:25:38.370Z,20.32
2018-11-01T11:28:08.138Z,20.40
2018-11-01T11:30:38.009Z,21.75
2018-11-01T11:33:07.737Z,20.40
2018-11-01T11:35:37.903Z,20.80
2018-11-01T11:38:07.624Z,21.05
2018-11-01T11:40:37.537Z,20.88
2018-11-01T11:43:07.439Z,19.50
2018-11-01T11:45:37.262Z,19.98
2018-11-01T11:48:07.587Z,20.40
2018-11-01T11:50:37.331Z,19.45
2018-11-01T11:53:07.143Z,19.92
2018-11-01T11:55:37.175Z,19.02
2018-11-01T11:58:06.971Z,19.48
2018-11-01T12:00:36.776Z,18.75
2018-11-01T12:03:06.695Z,18.92
2018-11-01T12:05:36.424Z,18.95
2018-11-01T12:08:06.134Z,18.10
2018-11-01T12:10:36.194Z,18.42
2018-11-01T12:13:06.570Z,18.57
2018-11-01T12:15:36.351Z,18.48
2018-11-01T12:18:06.195Z,17.73
2018-11-01T12:20:36.418Z,17.40
2018-11-01T12:23:06.278Z,18.40
2018-11-01T12:25:36.105Z,18.05
2018-11-01T12:28:06.158Z,17.42
2018-11-01T12:30:35.935Z,17.37
2018-11-01T12:33:05.598Z,16.95
2018-11-01T12:35:35.410Z,17.30
2018-11-01T12:38:05.431Z,17.62
2018-11-01T12:40:35.277Z,16.40
2018-11-01T12:43:05.075Z,17.32
2018-11-01T12:45:34.718Z,17.50
2018-11-01T12:48:04.400Z,15.68
2018-11-01T12:50:34.368Z,17.35
2018-11-01T12:53:04.397Z,15.70
2018-11-01T12:55:34.552Z,16.60
2018-11-01T12:58:04.282Z,16.10
2018-11-01T13:00:34.307Z,14.90
2018-11-01T13:03:04.111Z,16.05
2018-11-01T13:05:33.856Z,15.70
2018-11-01T13:08:03.561Z,15.40
2018-11-01T13:10:33.363Z,15.53
2018-11-01T13:13:03.287Z,15.18
2018-11-01T13:15:33.062Z,15.50
2018-11-01T13:18:02.904Z,15.65
2018-11-01T13:20:32.610Z,15.75
2018-11-01T13:23:02.322Z,15.80
2018-11-01T13:25:32.070Z,15.80
2018-11-01T13:28:01.839Z,15.38
2018-11-01T13:30:31.691Z,16.40
2018-11-01T13:33:02.319Z,15.40
2018-11-01T13:35:32.133Z,14.18
2018-11-01T13:38:02.178Z,16.00
2018-11-01T13:40:32.456Z,17.27
2018-11-01T13:43:01.808Z,14.93
2018-11-01T13:45:31.640Z,14.93
2018-11-01T13:48:01.451Z,14.63
2018-11-01T13:50:31.367Z,15.10
2018-11-01T13:53:01.363Z,14.33
2018-11-01T13:55:31.703Z,15.08
2018-11-01T13:58:01.452Z,15.23
2018-11-01T14:00:31.551Z,16.27
2018-11-01T14:03:01.291Z,14.60
2018-11-01T14:05:31.057Z,14.33
2018-11-01T14:08:00.822Z,14.25
2018-11-01T14:10:30.557Z,13.30
2018-11-01T14:13:00.331Z,14.10
2018-11-01T14:15:30.769Z,14.35
2018-11-01T14:18:00.643Z,13.32
2018-11-01T14:20:30.331Z,14.18
2018-11-01T14:23:00.147Z,12.98
2018-11-01T14:25:29.986Z,13.78
2018-11-01T14:27:59.719Z,13.03
2018-11-01T14:30:30.012Z,11.63
2018-11-01T14:32:59.811Z,12.65
2018-11-01T14:35:29.519Z,14.90
2018-11-01T14:37:59.306Z,13.35
2018-11-01T14:40:29.238Z,12.18
2018-11-01T14:42:59.778Z,13.00
2018-11-01T14:45:29.758Z,12.80
2018-11-01T14:47:59.522Z,12.47
2018-11-01T14:50:29.306Z,13.05
2018-11-01T14:52:59.457Z,13.00
2018-11-01T14:55:30.367Z,12.40
2018-11-01T14:58:00.091Z,12.07
2018-11-01T15:00:28.350Z,11.65
2018-11-01T15:02:58.110Z,12.35
2018-11-01T15:05:27.997Z,12.05
2018-11-01T15:07:57.982Z,11.55
2018-11-01T15:10:27.747Z,11.43
2018-11-01T15:12:57.487Z,11.95
2018-11-01T15:15:27.259Z,12.18
2018-11-01T15:17:57.043Z,11.55
2018-11-01T15:20:26.720Z,11.43
2018-11-01T15:22:56.502Z,11.57
2018-11-01T15:25:26.510Z,10.60
2018-11-01T15:27:56.310Z,10.95
2018-11-01T15:30:26.098Z,10.95
2018-11-01T15:32:55.875Z,11.05
2018-11-01T15:35:25.672Z,10.98
2018-11-01T15:37:55.519Z,10.38
2018-11-01T15:40:25.302Z,12.15
2018-11-01T15:42:55.047Z,14.10
2018-11-01T15:45:24.924Z,24.10
2018-11-01T15:47:55.209Z,27.40
2018-11-01T15:50:25.102Z,20.70
2018-11-01T15:52:55.222Z,16.12
2018-11-01T15:55:25.507Z,17.23
2018-11-01T15:57:56.128Z,18.37
2018-11-01T16:00:27.041Z,19.92
2018-11-01T16:02:57.027Z,15.90
2018-11-01T16:05:27.520Z,20.02
2018-11-01T16:07:57.706Z,22.10
2018-11-01T16:10:28.340Z,22.32
2018-11-01T16:12:58.884Z,19.67
2018-11-01T16:15:28.831Z,23.77
2018-11-01T16:17:58.527Z,21.12
2018-11-01T16:20:28.287Z,18.57
2018-11-01T16:22:58.319Z,21.95
2018-11-01T16:25:27.886Z,23.10
2018-11-01T16:27:57.714Z,18.45
2018-11-01T16:30:27.470Z,17.65
2018-11-01T16:32:57.734Z,19.25
2018-11-01T16:35:27.423Z,19.40
2018-11-01T16:37:58.800Z,20.65
2018-11-01T16:40:28.962Z,17.90
2018-11-01T16:43:00.044Z,19.15
2018-11-01T16:45:29.823Z,37.95
2018-11-01T16:47:59.636Z,30.97
2018-11-01T16:50:30.642Z,35.28
2018-11-01T16:53:00.442Z,25.50
2018-11-01T16:55:30.255Z,29.30
2018-11-01T16:58:00.860Z,29.40
2018-11-01T17:00:31.688Z,27.70
2018-11-01T17:03:02.379Z,27.10
2018-11-01T17:05:32.263Z,24.92
2018-11-01T17:08:02.324Z,26.05
2018-11-01T17:10:32.284Z,26.30
2018-11-01T17:13:03.241Z,22.73
2018-11-01T17:15:34.177Z,24.95
2018-11-01T17:18:04.083Z,22.55
2018-11-01T17:20:35.706Z,23.05
2018-11-01T17:23:06.060Z,21.17
2018-11-01T17:25:35.959Z,21.70
2018-11-01T17:28:05.948Z,23.85
2018-11-01T17:30:36.003Z,21.68
2018-11-01T17:33:06.171Z,19.73
2018-11-01T17:35:35.950Z,23.00
2018-11-01T17:38:05.910Z,27.70
2018-11-01T17:40:36.540Z,22.32
2018-11-01T17:43:07.214Z,18.50
2018-11-01T17:45:37.588Z,21.52
2018-11-01T17:48:07.800Z,23.12
2018-11-01T17:50:38.576Z,21.57
2018-11-01T17:53:08.759Z,31.33
2018-11-01T17:55:39.103Z,23.62
2018-11-01T17:58:09.122Z,31.15
2018-11-01T18:00:40.365Z,25.20
2018-11-01T18:03:10.433Z,28.90
2018-11-01T18:05:40.491Z,31.95
2018-11-01T18:08:10.548Z,48.30
2018-11-01T18:10:40.583Z,39.20
2018-11-01T18:13:10.555Z,43.10
2018-11-01T18:15:40.939Z,45.23
2018-11-01T18:18:10.860Z,48.78
2018-11-01T18:20:40.772Z,51.60
2018-11-01T18:23:11.000Z,55.03
2018-11-01T18:25:46.075Z,53.05
2018-11-01T18:28:16.894Z,55.88
2018-11-01T18:30:47.199Z,60.43
2018-11-01T18:33:17.211Z,71.62
2018-11-01T18:35:47.403Z,79.85
2018-11-01T18:38:17.219Z,91.87
2018-11-01T18:40:47.015Z,87.05
2018-11-01T18:43:17.035Z,58.92
2018-11-01T18:45:46.715Z,76.00
2018-11-01T18:48:16.911Z,72.50
2018-11-01T18:50:46.653Z,74.32
2018-11-01T18:53:17.163Z,77.72
2018-11-01T18:55:46.880Z,59.03
2018-11-01T18:58:17.088Z,57.55
2018-11-01T19:00:47.016Z,57.25
2018-11-01T19:03:20.790Z,82.97
2018-11-01T19:05:50.607Z,63.55
2018-11-01T19:08:20.666Z,85.87
2018-11-01T19:10:50.836Z,69.42
2018-11-01T19:13:20.773Z,76.35
2018-11-01T19:15:50.513Z,67.58
2018-11-01T19:18:20.344Z,72.45
2018-11-01T19:20:50.382Z,73.40
2018-11-01T19:23:20.347Z,74.70
2018-11-01T19:25:50.063Z,82.50
2018-11-01T19:28:20.071Z,82.05
2018-11-01T19:30:50.698Z,79.40
2018-11-01T19:33:20.467Z,82.40
2018-11-01T19:35:50.279Z,81.92
2018-11-01T19:38:20.898Z,83.12
2018-11-01T19:40:50.978Z,83.78
2018-11-01T19:43:21.034Z,85.38
2018-11-01T19:45:50.767Z,86.40
2018-11-01T19:48:21.244Z,85.12
2018-11-01T19:50:51.388Z,92.42
2018-11-01T19:53:21.576Z,88.67
2018-11-01T19:55:51.450Z,107.40
2018-11-01T19:58:21.656Z,103.40
2018-11-01T20:00:51.864Z,101.35
2018-11-01T20:03:22.294Z,100.75
2018-11-01T20:05:52.290Z,104.45
2018-11-01T20:08:23.057Z,109.48
2018-11-01T20:10:53.021Z,110.28
2018-11-01T20:13:24.276Z,109.35
2018-11-01T20:15:54.218Z,110.40
2018-11-01T20:18:24.321Z,111.15
2018-11-01T20:20:54.471Z,109.60
2018-11-01T20:23:25.281Z,112.05
2018-11-01T20:25:55.235Z,113.60
2018-11-01T20:28:25.231Z,113.42
2018-11-01T20:30:55.583Z,114.72
2018-11-01T20:33:25.494Z,111.32
2018-11-01T20:35:55.474Z,112.12
2018-11-01T20:38:25.446Z,111.65
2018-11-01T20:40:55.396Z,115.35
2018-11-01T20:43:25.320Z,111.47
2018-11-01T20:45:55.272Z,113.00
2018-11-01T20:48:25.453Z,113.70
2018-11-01T20:50:56.261Z,111.65
2018-11-01T20:53:26.063Z,113.03
2018-11-01T20:55:56.099Z,253.55
2018-11-01T20:58:26.005Z,147.95
2018-11-01T21:00:55.955Z,164.57
2018-11-01T21:03:25.969Z,157.25
2018-11-01T21:05:56.279Z,151.47
2018-11-01T21:08:26.499Z,147.53
2018-11-01T21:10:56.801Z,152.75
2018-11-01T21:13:26.593Z,154.50
2018-11-01T21:15:56.371Z,150.55
2018-11-01T21:18:25.875Z,150.75
2018-11-01T21:20:55.357Z,149.40
2018-11-01T21:23:24.912Z,148.05
2018-11-01T21:25:54.753Z,144.97
2018-11-01T21:28:24.727Z,148.82
2018-11-01T21:30:54.490Z,145.82
2018-11-01T21:33:24.370Z,138.47
2018-11-01T21:35:54.308Z,139.37
2018-11-01T21:38:24.159Z,188.32
2018-11-01T21:40:54.603Z,162.40
2018-11-01T21:43:24.467Z,194.30
2018-11-01T21:45:54.244Z,221.70
2018-11-01T21:48:23.889Z,130.70
2018-11-01T21:50:54.547Z,122.58
2018-11-01T21:53:24.313Z,129.70
2018-11-01T21:55:54.022Z,135.95
2018-11-01T21:58:23.843Z,131.80
2018-11-01T22:00:54.152Z,128.78
2018-11-01T22:03:23.938Z,129.30
2018-11-01T22:05:53.610Z,128.05
2018-11-01T22:08:23.355Z,132.63
2018-11-01T22:10:53.311Z,137.70
2018-11-01T22:13:23.074Z,132.45
2018-11-01T22:15:52.854Z,137.52
2018-11-01T22:18:22.590Z,135.05
2018-11-01T22:20:52.312Z,125.50
2018-11-01T22:23:22.351Z,126.10
2018-11-01T22:25:52.302Z,134.40
2018-11-01T22:28:22.090Z,132.15
2018-11-01T22:30:51.655Z,123.10
2018-11-01T22:33:21.433Z,133.35
2018-11-01T22:35:51.505Z,126.20
2018-11-01T22:38:21.427Z,144.87
2018-11-01T22:40:51.281Z,143.28
2018-11-01T22:43:21.378Z,145.38
2018-11-01T22:45:51.551Z,141.35
2018-11-01T22:48:21.462Z,137.72
2018-11-01T22:50:51.337Z,139.18
2018-11-01T22:53:21.111Z,136.20
2018-11-01T22:55:50.962Z,136.72
2018-11-01T22:58:20.835Z,138.28
2018-11-01T23:00:56.109Z,137.00
2018-11-01T23:03:25.852Z,131.50
2018-11-01T23:05:55.627Z,128.40
2018-11-01T23:08:26.158Z,127.85
2018-11-01T23:10:55.932Z,127.27
2018-11-01T23:13:25.902Z,127.45
2018-11-01T23:15:55.725Z,126.62
2018-11-01T23:18:25.856Z,125.15
2018-11-01T23:20:56.062Z,125.35
2018-11-01T23:23:25.802Z,120.85
2018-11-01T23:25:56.062Z,122.62
2018-11-01T23:28:25.842Z,118.93
2018-11-01T23:30:55.639Z,115.03
2018-11-01T23:33:25.561Z,118.00
2018-11-01T23:35:59.686Z,113.25
2018-11-01T23:38:34.592Z,113.70
2018-11-01T23:41:09.370Z,114.52
2018-11-01T23:43:44.310Z,111.42
2018-11-01T23:46:19.361Z,112.83
2018-11-01T23:48:52.518Z,108.85
2018-11-01T23:51:22.370Z,110.57
2018-11-01T23:53:52.738Z,111.52
2018-11-01T23:56:22.568Z,106.03
2018-11-01T23:58:52.335Z,104.07
